createdAt,value
2019-03-11T00:00:18.166Z,100810.61
2019-03-11T00:02:46.345Z,100803.26
2019-03-11T00:05:14.774Z,100800.00
2019-03-11T00:07:43.258Z,100788.02
2019-03-11T00:10:11.449Z,100787.53
2019-03-11T00:12:39.608Z,100792.30
2019-03-11T00:15:09.040Z,100796.65
2019-03-11T00:17:37.206Z,100802.45
2019-03-11T00:20:08.426Z,100813.78
2019-03-11T00:22:36.589Z,100827.16
2019-03-11T00:25:06.806Z,100846.05
2019-03-11T00:27:35.146Z,100821.13
2019-03-11T00:30:05.294Z,100823.50
2019-03-11T00:32:34.942Z,100832.55
2019-03-11T00:35:05.405Z,100827.11
2019-03-11T00:37:33.663Z,100827.30
2019-03-11T00:40:01.921Z,100835.29
2019-03-11T00:42:30.167Z,100850.67
2019-03-11T00:44:58.378Z,100852.47
2019-03-11T00:47:31.247Z,100848.55
2019-03-11T00:50:01.184Z,100840.97
2019-03-11T00:52:31.080Z,100836.89
2019-03-11T00:54:56.651Z,100845.31
2019-03-11T00:57:25.272Z,100864.79
2019-03-11T01:00:06.916Z,100879.59
2019-03-11T01:05:49.657Z,100878.97
2019-03-11T01:07:59.289Z,100878.30
2019-03-11T01:10:27.080Z,100874.48
2019-03-11T01:13:00.764Z,100886.41
2019-03-11T01:15:30.545Z,100861.94
2019-03-11T01:18:00.318Z,100859.36
2019-03-11T01:20:32.198Z,100842.02
2019-03-11T01:26:06.075Z,100830.97
2019-03-11T01:31:41.733Z,100806.34
2019-03-11T01:37:02.318Z,100813.27
2019-03-11T01:47:21.733Z,100794.89
2019-03-11T01:49:49.922Z,100789.18
2019-03-11T01:52:18.446Z,100797.42
2019-03-11T01:54:46.631Z,100797.51
2019-03-11T01:57:15.095Z,100792.59
2019-03-11T01:59:43.321Z,100790.23
2019-03-11T02:02:11.573Z,100786.48
2019-03-11T02:04:39.772Z,100782.53
2019-03-11T02:07:07.942Z,100778.18
2019-03-11T02:09:36.131Z,100783.92
2019-03-11T02:12:04.477Z,100783.17
2019-03-11T02:14:32.662Z,100782.60
2019-03-11T02:17:01.191Z,100774.47
2019-03-11T02:19:29.381Z,100778.84
2019-03-11T02:21:57.566Z,100786.70
2019-03-11T02:24:25.766Z,100796.45
2019-03-11T02:26:54.294Z,100801.80
2019-03-11T02:29:22.471Z,100786.78
2019-03-11T02:31:50.950Z,100781.16
2019-03-11T02:34:19.134Z,100769.59
2019-03-11T02:36:47.350Z,100767.51
2019-03-11T02:39:15.599Z,100757.82
2019-03-11T02:41:43.759Z,100757.72
2019-03-11T02:44:11.950Z,100755.02
2019-03-11T02:46:40.125Z,100753.89
2019-03-11T02:49:08.310Z,100760.55
2019-03-11T02:51:36.853Z,100764.81
2019-03-11T02:54:05.026Z,100762.98
2019-03-11T02:56:33.189Z,100772.11
2019-03-11T02:59:01.374Z,100773.23
2019-03-11T03:01:31.195Z,100781.47
2019-03-11T03:04:01.027Z,100777.73
2019-03-11T03:06:29.221Z,100777.77
2019-03-11T03:08:57.404Z,100767.55
2019-03-11T03:11:25.579Z,100765.70
2019-03-11T03:13:54.082Z,100765.98
2019-03-11T03:16:22.306Z,100762.38
2019-03-11T03:18:50.745Z,100770.70
2019-03-11T03:21:18.907Z,100771.20
2019-03-11T03:23:47.108Z,100766.27
2019-03-11T03:26:15.304Z,100760.51
2019-03-11T03:28:43.489Z,100760.57
2019-03-11T03:31:11.668Z,100768.08
2019-03-11T03:33:39.946Z,100770.47
2019-03-11T03:36:08.254Z,100765.27
2019-03-11T03:38:36.438Z,100771.78
2019-03-11T03:41:04.929Z,100776.86
2019-03-11T03:43:33.174Z,100770.09
2019-03-11T03:46:01.326Z,100775.41
2019-03-11T03:48:29.894Z,100777.38
2019-03-11T03:50:58.097Z,100783.45
2019-03-11T03:53:26.260Z,100783.70
2019-03-11T03:55:54.759Z,100781.96
2019-03-11T03:58:22.927Z,100773.23
2019-03-11T04:00:51.090Z,100774.44
2019-03-11T04:03:19.306Z,100777.03
2019-03-11T04:05:47.470Z,100772.23
2019-03-11T04:08:15.650Z,100773.00
2019-03-11T04:10:43.839Z,100772.98
2019-03-11T04:13:12.019Z,100771.49
2019-03-11T04:15:40.203Z,100781.11
2019-03-11T04:18:09.939Z,100786.06
2019-03-11T04:20:38.100Z,100782.69
2019-03-11T04:23:06.299Z,100787.66
2019-03-11T04:25:34.897Z,100798.19
2019-03-11T04:28:04.082Z,100801.83
2019-03-11T04:30:32.338Z,100805.63
2019-03-11T04:33:00.841Z,100803.55
2019-03-11T04:35:29.011Z,100795.86
2019-03-11T04:37:57.706Z,100792.41
2019-03-11T04:40:25.873Z,100785.90
2019-03-11T04:42:54.034Z,100782.53
2019-03-11T04:45:22.227Z,100791.28
2019-03-11T04:47:50.392Z,100794.50
2019-03-11T04:50:19.732Z,100798.09
2019-03-11T04:52:47.882Z,100799.56
2019-03-11T04:55:16.805Z,100794.20
2019-03-11T04:57:52.547Z,100794.41
2019-03-11T05:00:31.164Z,100810.90
2019-03-11T05:02:59.507Z,100817.81
2019-03-11T05:05:27.677Z,100826.02
2019-03-11T05:07:55.869Z,100839.76
2019-03-11T05:10:24.079Z,100850.57
2019-03-11T05:12:52.273Z,100859.91
2019-03-11T05:15:20.440Z,100856.39
2019-03-11T05:17:48.978Z,100855.59
2019-03-11T05:20:18.013Z,100854.58
2019-03-11T05:22:46.197Z,100847.39
2019-03-11T05:25:15.122Z,100847.30
2019-03-11T05:27:43.682Z,100845.98
2019-03-11T05:30:19.877Z,100863.17
2019-03-11T05:32:48.213Z,100870.79
2019-03-11T05:35:16.715Z,100870.91
2019-03-11T05:37:44.987Z,100870.17
2019-03-11T05:40:17.121Z,100869.64
2019-03-11T05:42:45.314Z,100865.66
2019-03-11T05:45:15.607Z,100867.56
2019-03-11T05:47:43.873Z,100873.11
2019-03-11T05:50:14.758Z,100878.59
2019-03-11T05:52:43.549Z,100880.80
2019-03-11T05:55:12.801Z,100863.50
2019-03-11T05:57:41.141Z,100875.80
2019-03-11T06:00:12.620Z,100881.33
2019-03-11T06:02:40.778Z,100886.09
2019-03-11T06:05:09.100Z,100890.33
2019-03-11T06:07:37.257Z,100899.98
2019-03-11T06:10:08.585Z,100913.78
2019-03-11T06:12:36.797Z,100915.18
2019-03-11T06:15:08.157Z,100917.73
2019-03-11T06:17:36.353Z,100917.31
2019-03-11T06:20:11.301Z,100915.36
2019-03-11T06:22:39.480Z,100919.95
2019-03-11T06:25:07.652Z,100914.57
2019-03-11T06:27:36.203Z,100915.10
2019-03-11T06:30:08.194Z,100914.13
2019-03-11T06:32:37.051Z,100911.58
2019-03-11T06:35:05.707Z,100906.42
2019-03-11T06:37:33.879Z,100912.94
2019-03-11T06:40:02.388Z,100913.37
2019-03-11T06:42:30.583Z,100918.40
2019-03-11T06:44:58.758Z,100917.33
2019-03-11T06:47:26.952Z,100919.94
2019-03-11T06:49:55.151Z,100920.20
2019-03-11T06:52:23.344Z,100919.31
2019-03-11T06:54:51.515Z,100921.73
2019-03-11T06:57:19.724Z,100924.95
2019-03-11T06:59:47.885Z,100925.05
2019-03-11T07:02:16.457Z,100929.47
2019-03-11T07:04:44.627Z,100924.75
2019-03-11T07:07:12.819Z,100925.21
2019-03-11T07:09:40.991Z,100922.66
2019-03-11T07:12:09.194Z,100938.83
2019-03-11T07:14:37.389Z,100945.06
2019-03-11T07:17:05.892Z,100960.09
2019-03-11T07:19:34.077Z,100958.67
2019-03-11T07:22:02.278Z,100968.28
2019-03-11T07:24:30.439Z,100969.86
2019-03-11T07:26:58.633Z,100971.59
2019-03-11T07:29:26.803Z,100973.56
2019-03-11T07:31:55.238Z,100982.61
2019-03-11T07:34:23.408Z,100989.39
2019-03-11T07:36:51.994Z,100990.84
2019-03-11T07:39:20.472Z,100988.40
2019-03-11T07:41:48.658Z,100989.62
2019-03-11T07:44:16.841Z,100996.57
2019-03-11T07:46:45.689Z,101007.15
2019-03-11T07:49:14.397Z,101003.55
2019-03-11T07:51:42.588Z,101002.36
2019-03-11T07:54:10.749Z,101002.48
2019-03-11T07:56:38.940Z,101010.41
2019-03-11T07:59:07.106Z,101014.91
2019-03-11T08:01:35.287Z,101002.40
2019-03-11T08:04:03.457Z,101003.81
2019-03-11T08:06:31.621Z,101010.08
2019-03-11T08:09:00.652Z,101007.84
2019-03-11T08:11:28.819Z,101010.42
2019-03-11T08:13:57.011Z,101022.91
2019-03-11T08:16:25.164Z,101034.98
2019-03-11T08:18:53.364Z,101038.57
2019-03-11T08:21:21.550Z,101038.59
2019-03-11T08:23:49.733Z,101037.75
2019-03-11T08:26:18.219Z,101041.91
2019-03-11T08:28:46.394Z,101046.70
2019-03-11T08:31:14.586Z,101057.71
2019-03-11T08:33:42.756Z,101061.13
2019-03-11T08:36:10.956Z,101056.97
2019-03-11T08:38:39.126Z,101065.11
2019-03-11T08:41:07.315Z,101066.92
2019-03-11T08:43:35.499Z,101068.37
2019-03-11T08:46:03.699Z,101072.36
2019-03-11T08:48:32.386Z,101070.58
2019-03-11T08:51:00.557Z,101075.12
2019-03-11T08:53:28.758Z,101077.53
2019-03-11T08:55:56.942Z,101081.34
2019-03-11T08:58:25.106Z,101080.08
2019-03-11T09:00:53.293Z,101079.38
2019-03-11T09:03:21.939Z,101082.33
2019-03-11T09:05:50.109Z,101081.28
2019-03-11T09:08:18.305Z,101084.53
2019-03-11T09:10:46.874Z,101087.67
2019-03-11T09:13:15.055Z,101087.53
2019-03-11T09:15:45.509Z,101094.48
2019-03-11T09:18:13.444Z,101092.53
2019-03-11T09:20:44.078Z,101096.06
2019-03-11T09:23:12.266Z,101092.29
2019-03-11T09:25:40.446Z,101101.60
2019-03-11T09:28:08.646Z,101090.77
2019-03-11T09:30:38.625Z,101089.91
2019-03-11T09:33:08.386Z,101089.46
2019-03-11T09:35:36.842Z,101095.33
2019-03-11T09:38:06.569Z,101088.69
2019-03-11T09:40:35.078Z,101090.42
2019-03-11T09:43:03.561Z,101092.76
2019-03-11T09:45:32.038Z,101091.86
2019-03-11T09:48:00.213Z,101092.51
2019-03-11T09:50:28.423Z,101095.17
2019-03-11T09:52:56.590Z,101099.45
2019-03-11T09:55:27.079Z,101101.94
2019-03-11T09:57:55.286Z,101104.09
2019-03-11T10:00:24.294Z,101103.22
2019-03-11T10:02:53.493Z,101112.83
2019-03-11T10:05:22.032Z,101113.11
2019-03-11T10:07:50.400Z,101109.48
2019-03-11T10:10:20.018Z,101111.81
2019-03-11T10:12:48.204Z,101116.86
2019-03-11T10:15:18.106Z,101116.84
2019-03-11T10:17:46.678Z,101114.31
2019-03-11T10:20:19.045Z,101120.61
2019-03-11T10:22:47.575Z,101131.56
2019-03-11T10:25:17.031Z,101132.98
2019-03-11T10:27:45.333Z,101131.66
2019-03-11T10:30:21.092Z,101120.42
2019-03-11T10:32:49.325Z,101123.45
2019-03-11T10:35:31.352Z,101121.31
2019-03-11T10:37:50.042Z,101120.70
2019-03-11T10:40:20.808Z,101130.49
2019-03-11T10:42:49.004Z,101127.88
2019-03-11T10:45:17.508Z,101121.58
2019-03-11T10:47:45.765Z,101127.59
2019-03-11T10:50:18.559Z,101119.33
2019-03-11T10:52:46.838Z,101122.01
2019-03-11T10:55:16.363Z,101132.75
2019-03-11T10:57:44.660Z,101139.09
2019-03-11T11:00:26.046Z,101125.89
2019-03-11T11:02:54.573Z,101118.93
2019-03-11T11:05:22.737Z,101126.92
2019-03-11T11:07:50.998Z,101147.53
2019-03-11T11:10:19.524Z,101129.48
2019-03-11T11:12:47.882Z,101143.41
2019-03-11T11:15:20.778Z,101136.86
2019-03-11T11:17:48.962Z,101127.44
2019-03-11T11:20:19.065Z,101153.12
2019-03-11T11:22:47.514Z,101160.86
2019-03-11T11:25:20.426Z,101153.02
2019-03-11T11:27:48.793Z,101149.89
2019-03-11T11:30:24.420Z,101154.25
2019-03-11T11:32:52.949Z,101138.52
2019-03-11T11:35:21.384Z,101157.44
2019-03-11T11:37:49.644Z,101154.31
2019-03-11T11:40:24.835Z,101168.81
2019-03-11T11:42:53.076Z,101156.91
2019-03-11T11:45:30.075Z,101167.84
2019-03-11T11:47:58.269Z,101183.81
2019-03-11T11:50:26.694Z,101185.48
2019-03-11T11:52:55.163Z,101188.73
2019-03-11T11:55:23.866Z,101211.23
2019-03-11T11:57:52.125Z,101211.61
2019-03-11T12:00:34.921Z,101216.53
2019-03-11T12:03:03.111Z,101216.97
2019-03-11T12:05:31.378Z,101220.04
2019-03-11T12:07:59.912Z,101220.77
2019-03-11T12:10:33.387Z,101230.69
2019-03-11T12:13:01.581Z,101225.04
2019-03-11T12:15:29.818Z,101223.20
2019-03-11T12:17:58.015Z,101215.75
2019-03-11T12:20:30.208Z,101210.69
2019-03-11T12:22:58.397Z,101205.20
2019-03-11T12:25:26.639Z,101192.75
2019-03-11T12:27:54.996Z,101212.44
2019-03-11T12:30:28.048Z,101235.36
2019-03-11T12:32:56.356Z,101252.45
2019-03-11T12:35:24.613Z,101258.83
2019-03-11T12:37:54.805Z,101242.69
2019-03-11T12:40:23.567Z,101241.91
2019-03-11T12:42:52.075Z,101250.67
2019-03-11T12:45:22.834Z,101242.20
2019-03-11T12:47:51.165Z,101247.98
2019-03-11T12:50:22.439Z,101249.26
2019-03-11T12:52:50.703Z,101258.01
2019-03-11T12:55:21.180Z,101252.31
2019-03-11T12:57:48.787Z,101253.42
2019-03-11T13:00:19.501Z,101256.91
2019-03-11T13:02:48.158Z,101272.25
2019-03-11T13:05:17.455Z,101285.88
2019-03-11T13:07:45.697Z,101270.31
2019-03-11T13:10:20.254Z,101282.09
2019-03-11T13:12:48.937Z,101286.30
2019-03-11T13:15:17.445Z,101294.52
2019-03-11T13:17:46.008Z,101304.89
2019-03-11T13:20:37.804Z,101308.25
2019-03-11T13:23:05.994Z,101317.02
2019-03-11T13:25:34.188Z,101315.17
2019-03-11T13:28:02.365Z,101305.23
2019-03-11T13:30:30.545Z,101320.36
2019-03-11T13:32:58.717Z,101317.02
2019-03-11T13:35:26.897Z,101310.84
2019-03-11T13:37:55.553Z,101323.16
2019-03-11T13:40:23.729Z,101310.85
2019-03-11T13:42:51.900Z,101315.05
2019-03-11T13:45:20.481Z,101314.02
2019-03-11T13:47:48.842Z,101314.34
2019-03-11T13:50:18.843Z,101302.00
2019-03-11T13:52:47.272Z,101312.76
2019-03-11T13:55:16.682Z,101318.31
2019-03-11T13:57:44.872Z,101326.88
2019-03-11T14:00:18.257Z,101327.55
2019-03-11T14:02:46.707Z,101333.89
2019-03-11T14:05:14.912Z,101343.41
2019-03-11T14:07:43.388Z,101333.38
2019-03-11T14:10:12.474Z,101337.03
2019-03-11T14:12:40.670Z,101342.92
2019-03-11T14:15:22.678Z,101338.42
2019-03-11T14:17:50.857Z,101345.68
2019-03-11T14:20:19.098Z,101350.44
2019-03-11T14:22:47.291Z,101340.05
2019-03-11T14:25:15.775Z,101349.14
2019-03-11T14:27:44.014Z,101338.59
2019-03-11T14:30:19.618Z,101349.42
2019-03-11T14:32:47.840Z,101343.57
2019-03-11T14:35:16.018Z,101359.03
2019-03-11T14:37:44.207Z,101348.33
2019-03-11T14:40:14.498Z,101341.23
2019-03-11T14:42:42.975Z,101334.77
2019-03-11T14:45:15.963Z,101344.25
2019-03-11T14:47:44.137Z,101368.98
2019-03-11T14:50:14.055Z,101367.70
2019-03-11T14:52:42.233Z,101353.55
2019-03-11T14:55:11.639Z,101338.80
2019-03-11T14:57:39.813Z,101365.55
2019-03-11T15:00:11.573Z,101367.88
2019-03-11T15:02:39.738Z,101368.33
2019-03-11T15:05:08.557Z,101361.55
2019-03-11T15:07:37.014Z,101377.34
2019-03-11T15:10:07.920Z,101372.66
2019-03-11T15:12:36.086Z,101376.37
2019-03-11T15:15:07.376Z,101375.34
2019-03-11T15:17:35.805Z,101378.26
2019-03-11T15:20:05.935Z,101375.27
2019-03-11T15:22:34.112Z,101372.85
2019-03-11T15:25:02.301Z,101377.99
2019-03-11T15:27:30.463Z,101374.83
2019-03-11T15:29:58.632Z,101377.88
2019-03-11T15:32:27.418Z,101366.53
2019-03-11T15:34:55.591Z,101374.23
2019-03-11T15:37:23.764Z,101377.44
2019-03-11T15:39:51.925Z,101377.84
2019-03-11T15:42:20.414Z,101374.43
2019-03-11T15:44:48.577Z,101379.98
2019-03-11T15:47:16.754Z,101391.15
2019-03-11T15:49:44.918Z,101381.27
2019-03-11T15:52:13.101Z,101373.58
2019-03-11T15:54:41.402Z,101386.01
2019-03-11T15:57:09.713Z,101389.35
2019-03-11T15:59:37.879Z,101392.75
2019-03-11T16:02:06.767Z,101379.62
2019-03-11T16:04:34.994Z,101405.61
2019-03-11T16:07:03.177Z,101401.83
2019-03-11T16:09:31.407Z,101406.47
2019-03-11T16:11:59.935Z,101398.16
2019-03-11T16:14:28.118Z,101409.25
2019-03-11T16:16:56.547Z,101404.59
2019-03-11T16:19:24.777Z,101409.15
2019-03-11T16:21:53.049Z,101415.59
2019-03-11T16:24:21.281Z,101412.57
2019-03-11T16:26:49.473Z,101420.88
2019-03-11T16:29:17.749Z,101432.98
2019-03-11T16:31:45.911Z,101430.59
2019-03-11T16:34:14.103Z,101435.57
2019-03-11T16:36:42.286Z,101455.50
2019-03-11T16:39:10.558Z,101448.91
2019-03-11T16:41:38.746Z,101457.44
2019-03-11T16:44:06.909Z,101469.06
2019-03-11T16:46:35.073Z,101464.41
2019-03-11T16:49:03.537Z,101467.06
2019-03-11T16:51:32.251Z,101477.50
2019-03-11T16:54:00.929Z,101479.52
2019-03-11T16:56:29.398Z,101473.78
2019-03-11T16:58:57.635Z,101483.56
2019-03-11T17:01:25.903Z,101491.59
2019-03-11T17:03:58.430Z,101492.78
2019-03-11T17:06:24.095Z,101495.74
2019-03-11T17:08:52.628Z,101486.94
2019-03-11T17:11:21.205Z,101498.93
2019-03-11T17:13:49.427Z,101512.77
2019-03-11T17:16:42.147Z,101505.30
2019-03-11T17:20:17.231Z,101511.38
2019-03-11T17:22:05.581Z,101508.05
2019-03-11T17:24:10.144Z,101517.27
2019-03-11T17:26:41.929Z,101524.91
2019-03-11T17:29:09.109Z,101532.21
2019-03-11T17:31:37.274Z,101523.89
2019-03-11T17:34:07.349Z,101531.06
2019-03-11T17:36:35.550Z,101529.53
2019-03-11T17:39:04.503Z,101541.16
2019-03-11T17:41:32.756Z,101548.00
2019-03-11T17:44:01.449Z,101556.52
2019-03-11T17:46:29.707Z,101556.47
2019-03-11T17:48:57.926Z,101563.00
2019-03-11T17:51:26.147Z,101560.98
2019-03-11T17:53:54.656Z,101574.62
2019-03-11T17:56:22.869Z,101570.39
2019-03-11T17:58:51.040Z,101573.31
2019-03-11T18:01:19.234Z,101586.89
2019-03-11T18:03:47.411Z,101593.97
2019-03-11T18:06:15.619Z,101594.19
2019-03-11T18:08:43.853Z,101615.30
2019-03-11T18:11:12.038Z,101612.91
2019-03-11T18:13:40.206Z,101616.40
2019-03-11T18:16:08.396Z,101617.24
2019-03-11T18:18:36.558Z,101638.31
2019-03-11T18:21:06.781Z,101638.58
2019-03-11T18:23:34.711Z,101643.91
2019-03-11T18:26:02.883Z,101633.36
2019-03-11T18:28:31.094Z,101660.27
2019-03-11T18:30:59.368Z,101660.77
2019-03-11T18:33:27.583Z,101658.22
2019-03-11T18:35:55.724Z,101651.61
2019-03-11T18:38:23.890Z,101676.32
2019-03-11T18:40:54.279Z,101660.54
2019-03-11T18:43:22.062Z,101662.05
2019-03-11T18:45:50.308Z,101669.95
2019-03-11T18:48:18.496Z,101658.94
2019-03-11T18:50:46.683Z,101683.28
2019-03-11T18:53:14.873Z,101689.00
2019-03-11T18:55:43.035Z,101677.35
2019-03-11T18:58:11.194Z,101694.70
2019-03-11T19:00:39.755Z,101691.39
2019-03-11T19:03:08.052Z,101694.33
2019-03-11T19:05:36.234Z,101683.14
2019-03-11T19:08:04.664Z,101688.95
2019-03-11T19:10:32.848Z,101707.09
2019-03-11T19:13:01.055Z,101704.59
2019-03-11T19:15:29.338Z,101706.53
2019-03-11T19:17:57.540Z,101725.88
2019-03-11T19:20:26.428Z,101724.16
2019-03-11T19:22:55.018Z,101729.49
2019-03-11T19:25:23.845Z,101734.52
2019-03-11T19:27:52.818Z,101733.52
2019-03-11T19:30:26.219Z,101734.67
2019-03-11T19:32:54.594Z,101739.11
2019-03-11T19:35:24.567Z,101748.33
2019-03-11T19:37:54.426Z,101753.37
2019-03-11T19:40:25.176Z,101766.22
2019-03-11T19:42:53.539Z,101774.08
2019-03-11T19:45:21.908Z,101777.62
2019-03-11T19:47:51.081Z,101772.73
2019-03-11T19:50:20.259Z,101778.95
2019-03-11T19:52:58.451Z,101790.75
2019-03-11T19:55:18.895Z,101792.03
2019-03-11T19:57:47.609Z,101788.02
2019-03-11T20:00:23.564Z,101790.59
2019-03-11T20:02:53.047Z,101784.16
2019-03-11T20:05:28.921Z,101787.62
2019-03-11T20:07:57.315Z,101790.70
2019-03-11T20:10:25.876Z,101789.05
2019-03-11T20:12:54.360Z,101798.84
2019-03-11T20:15:22.900Z,101801.23
2019-03-11T20:17:51.310Z,101817.00
2019-03-11T20:20:20.599Z,101810.88
2019-03-11T20:22:50.456Z,101813.94
2019-03-11T20:25:21.789Z,101824.81
2019-03-11T20:27:50.687Z,101823.30
2019-03-11T20:30:21.306Z,101820.56
2019-03-11T20:32:49.959Z,101826.20
2019-03-11T20:35:18.284Z,101830.20
2019-03-11T20:37:47.033Z,101832.79
2019-03-11T20:40:15.584Z,101839.97
2019-03-11T20:42:43.954Z,101842.50
2019-03-11T20:45:18.412Z,101846.15
2019-03-11T20:47:47.513Z,101855.86
2019-03-11T20:50:17.029Z,101860.39
2019-03-11T20:52:46.039Z,101861.14
2019-03-11T20:55:16.091Z,101863.34
2019-03-11T20:57:44.442Z,101861.08
2019-03-11T21:00:15.295Z,101874.73
2019-03-11T21:02:43.967Z,101869.09
2019-03-11T21:05:14.816Z,101875.45
2019-03-11T21:07:43.449Z,101864.54
2019-03-11T21:10:14.415Z,101875.53
2019-03-11T21:12:42.828Z,101879.97
2019-03-11T21:15:13.693Z,101876.28
2019-03-11T21:17:42.103Z,101872.85
2019-03-11T21:20:18.091Z,101877.95
2019-03-11T21:22:46.515Z,101878.43
2019-03-11T21:25:16.715Z,101889.98
2019-03-11T21:27:45.013Z,101890.08
2019-03-11T21:30:19.080Z,101884.29
2019-03-11T21:32:47.669Z,101894.74
2019-03-11T21:35:16.257Z,101896.64
2019-03-11T21:37:44.642Z,101894.61
2019-03-11T21:40:23.387Z,101895.54
2019-03-11T21:42:51.982Z,101901.20
2019-03-11T21:45:33.042Z,101901.18
2019-03-11T21:47:51.134Z,101896.09
2019-03-11T21:50:21.509Z,101891.11
2019-03-11T21:52:49.839Z,101886.23
2019-03-11T21:55:18.018Z,101898.80
2019-03-11T21:57:46.272Z,101899.28
2019-03-11T22:00:28.487Z,101893.73
2019-03-11T22:02:47.904Z,101899.97
2019-03-11T22:05:16.093Z,101901.73
2019-03-11T22:07:44.610Z,101909.91
2019-03-11T22:10:17.305Z,101911.34
2019-03-11T22:12:45.561Z,101910.22
2019-03-11T22:15:21.146Z,101910.81
2019-03-11T22:17:49.338Z,101905.39
2019-03-11T22:20:17.871Z,101910.52
2019-03-11T22:22:46.234Z,101908.48
2019-03-11T22:25:16.640Z,101909.03
2019-03-11T22:27:44.974Z,101909.81
2019-03-11T22:30:21.040Z,101908.91
2019-03-11T22:32:49.349Z,101907.66
2019-03-11T22:35:17.530Z,101908.90
2019-03-11T22:37:45.994Z,101907.48
2019-03-11T22:40:15.990Z,101902.48
2019-03-11T22:42:44.178Z,101900.19
2019-03-11T22:45:16.847Z,101899.28
2019-03-11T22:47:44.682Z,101898.25
2019-03-11T22:50:13.394Z,101906.56
2019-03-11T22:52:41.579Z,101901.78
2019-03-11T22:55:11.153Z,101908.41
2019-03-11T22:57:39.313Z,101923.68
2019-03-11T23:00:29.312Z,101923.52
2019-03-11T23:02:57.469Z,101925.37
2019-03-11T23:05:25.649Z,101925.18
2019-03-11T23:07:53.978Z,101922.46
2019-03-11T23:10:22.175Z,101921.27
2019-03-11T23:12:50.348Z,101916.61
2019-03-11T23:15:18.536Z,101920.88
2019-03-11T23:17:46.730Z,101914.43
2019-03-11T23:20:14.969Z,101910.69
2019-03-11T23:22:43.464Z,101913.36
2019-03-11T23:25:11.643Z,101909.27
2019-03-11T23:27:39.805Z,101904.56
2019-03-11T23:30:14.038Z,101904.55
2019-03-11T23:32:42.221Z,101902.66
2019-03-11T23:35:10.726Z,101908.88
2019-03-11T23:37:38.889Z,101904.80
2019-03-11T23:40:09.021Z,101902.59
2019-03-11T23:42:37.262Z,101902.26
2019-03-11T23:45:07.405Z,101900.43
2019-03-11T23:47:37.091Z,101896.00
2019-03-11T23:50:10.202Z,101891.27
2019-03-11T23:52:38.365Z,101894.52
2019-03-11T23:55:08.397Z,101896.01
2019-03-11T23:57:36.926Z,101893.78
